Friendship, MD (20758)

2:42 PM EDT on July 29, 2015 (GMT -0400)
Victoria Station | | Change Station
CLOSE
Current Station
Personal Weather Station
Location: Owings, MD
Elevation: 157 ft
Nearby Weather Stations

Elev 157 ft 38.69 °N, 76.62 °W | Updated 4 minutes ago

Overcast
Overcast
87.5 °F
Feels Like 98 °F
N
0.0
Wind Variable Wind from SE
Gusts 4.0 mph

Today
High -- | Low -- °F
--% Chance of Precip.
Yesterday
High -- | Low -- °F
Precip. -- in
6:04 AM 8:20 PM
Waxing Gibbous, 96% visible
Pressure 29.99 in
Visibility 10.0 miles
Clouds Few 3300 ft
Heat Index 98 °F
Dew Point 76 °F
Humidity 69%
Rainfall 0.00 in
Snow Depth Not available.
UV 10 out of 12
Pollen 5.60 out of 12
Air Quality Not available.
Flu Activity Not available.
METAR KADW 291758Z AUTO 20010G19KT 10SM FEW033 32/23 A2998 RMK AO2 SLP156 T03160226 10317 20255 58010 $

More Conditions Fewer Conditions

Pressure 29.99 in
Visibility 10.0 miles
Clouds Few 3300 ft
Heat Index 98 °F
Dew Point 76 °F
Humidity 69%
Rainfall 0.00 in
Snow Depth Not available.
UV 10 out of 12
Pollen 5.60 out of 12
Air Quality Not available.
Flu Activity Not available.
METAR KADW 291758Z AUTO 20010G19KT 10SM FEW033 32/23 A2998 RMK AO2 SLP156 T03160226 10317 20255 58010 $

More Conditions Fewer Conditions

Nowcast | as of 2:33 PM EDT on July 29, 2015

a heavy shower will affect central Anne Arundel County... At 230 PM EDT...a heavy shower was over parole...or near Severn River...moving northeast at 5 mph. Radar estimated that locally in excess of two inches of rain has fallen. Moderate rain is continuing to fall. Locations impacted include... Severn River...South River...rhode river...Londontowne...Arnold... parole...Highland Beach...Eastport...Riva...Sherwood Forest... Galesville...Bay Ridge...Edgewater Beach...Crownsville... Davidsonville...cape St. Claire...Navy-marine corps stadium... Edgewater...Harwood and Hillsmere Shores. Torrential rainfall is occurring with this shower...and may cause localized flooding. Do not drive your vehicle through flooded roadways. Lat...Lon 3900 7641 3900 7644 3897 7645 3898 7646 3898 7647 3896 7647 3894 7645 3891 7646 3892 7647 3890 7647 3887 7651 3885 7649 3886 7665 3900 7666 3908 7642 3905 7644 3901 7638 time...Mot...loc 1830z 235deg 6kt 3897 7656

×

10-Day Weather Forecast

×

Almanac

Astronomy

Jul. 29, 2015 Rise Set
Actual Time
Civil Twilight
Nautical Twilight
Astronomical Twilight
Moon
Length of Visible Light
Length of Day
Tomorrow will be .
, % of the Moon is Illuminated

Today's Extremes

State Highs State Lows

Community

WunderPhotos

Upload Photos

1,842,149 photos uploaded!

WunderBlogs® & News

Nearby

Air Quality

  Air Quality AQ Index Pollutant
Not available.

Snow Depth

Station Depth Elevation

Earthquake Activity

City Distance Mag. Time & Date
Minimum magnitude displayed is 2.5.

Coastal Water Temperatures

Place Temperature

Stations

Nearby Weather Stations

Station Location Temp. Windchill Dew Point Humidity Wind Precip. Elev Updated Type